TimeCST,TemperatureF,Dew PointF,Humidity,Sea Level PressureIn,VisibilityMPH,Wind Direction,Wind SpeedMPH,Gust SpeedMPH,PrecipitationIn,Events,Conditions,WindDirDegrees,DateUTC
12:14 AM,32.0,30.2,93,29.32,7.0,WNW,9.2,-,N/A,,Overcast,300,2013-02-11 06:14:00
12:33 AM,32.0,30.2,93,29.33,7.0,WNW,10.4,-,N/A,,Overcast,300,2013-02-11 06:33:00
12:54 AM,32.0,32.0,100,29.34,7.0,NW,10.4,-,N/A,Snow,Light Snow,310,2013-02-11 06:54:00
1:14 AM,32.0,30.2,93,29.35,7.0,NW,12.7,17.3,N/A,,Overcast,310,2013-02-11 07:14:00
1:33 AM,32.0,30.2,93,29.36,10.0,WNW,13.8,18.4,N/A,Snow,Light Snow,300,2013-02-11 07:33:00
1:54 AM,30.2,30.2,100,29.37,7.0,NW,16.1,20.7,N/A,Snow,Light Snow,310,2013-02-11 07:54:00
2:14 AM,30.2,30.2,100,29.38,7.0,WNW,13.8,19.6,N/A,,Overcast,300,2013-02-11 08:14:00
2:34 AM,30.2,28.4,93,29.39,10.0,WNW,15.0,19.6,N/A,Snow,Light Snow,300,2013-02-11 08:34:00
2:54 AM,30.2,28.4,93,29.41,7.0,WNW,15.0,20.7,N/A,Snow,Light Snow,300,2013-02-11 08:54:00
3:14 AM,30.2,28.4,93,29.42,10.0,WNW,16.1,25.3,N/A,,Overcast,300,2013-02-11 09:14:00
3:34 AM,30.2,28.4,93,29.43,10.0,WNW,16.1,20.7,N/A,,Overcast,300,2013-02-11 09:34:00
3:54 AM,30.2,28.4,93,29.44,10.0,WNW,17.3,23.0,N/A,,Overcast,300,2013-02-11 09:54:00
4:14 AM,30.2,28.4,93,29.46,10.0,WNW,17.3,20.7,N/A,,Overcast,300,2013-02-11 10:14:00
4:34 AM,30.2,26.6,86,29.48,10.0,WNW,17.3,21.9,N/A,,Overcast,290,2013-02-11 10:34:00
4:54 AM,30.2,26.6,86,29.49,10.0,WNW,16.1,21.9,N/A,,Overcast,290,2013-02-11 10:54:00
5:14 AM,28.4,26.6,93,29.51,10.0,WNW,18.4,26.5,N/A,Snow,Light Snow,300,2013-02-11 11:14:00
5:34 AM,28.4,26.6,93,29.52,7.0,WNW,20.7,24.2,N/A,Snow,Light Snow,290,2013-02-11 11:34:00
6:13 AM,28.4,24.8,86,29.55,10.0,WNW,15.0,24.2,N/A,Snow,Light Snow,300,2013-02-11 12:13:00
6:34 AM,28.4,24.8,86,29.58,5.0,WNW,16.1,32.2,N/A,Snow,Light Snow,300,2013-02-11 12:34:00
6:45 AM,28.4,24.8,86,29.58,5.0,WNW,17.3,32.2,N/A,Snow,Light Snow,300,2013-02-11 12:45:00
6:54 AM,26.6,24.8,93,29.59,4.0,WNW,17.3,25.3,N/A,Snow,Light Snow,290,2013-02-11 12:54:00
7:45 AM,26.6,23.0,86,29.63,7.0,WNW,17.3,26.5,N/A,,Overcast,290,2013-02-11 13:45:00
8:45 AM,26.6,21.2,80,29.67,10.0,WNW,17.3,26.5,N/A,,Mostly Cloudy,290,2013-02-11 14:45:00
9:45 AM,26.6,21.2,80,29.71,10.0,WNW,17.3,26.5,N/A,,Overcast,300,2013-02-11 15:45:00
10:59 AM,26.6,21.2,80,29.75,10.0,WNW,19.6,26.5,N/A,,Overcast,300,2013-02-11 16:59:00
11:50 AM,28.4,21.2,74,29.78,10.0,WNW,21.9,25.3,N/A,,Overcast,290,2013-02-11 17:50:00
12:45 PM,28.4,19.4,69,29.81,10.0,WNW,23.0,28.8,N/A,,Overcast,300,2013-02-11 18:45:00
2:00 PM,28.4,19.4,69,29.84,10.0,West,17.3,23.0,N/A,,Overcast,280,2013-02-11 20:00:00
2:50 PM,26.6,19.4,74,29.86,10.0,West,19.6,26.5,N/A,,Overcast,270,2013-02-11 20:50:00
3:45 PM,26.6,19.4,74,29.88,10.0,West,17.3,-,N/A,,Overcast,280,2013-02-11 21:45:00
4:45 PM,26.6,19.4,74,29.91,10.0,West,16.1,24.2,N/A,,Overcast,280,2013-02-11 22:45:00
5:45 PM,24.8,17.6,74,29.94,10.0,West,15.0,24.2,N/A,,Overcast,280,2013-02-11 23:45:00
6:50 PM,23.0,17.6,80,29.96,10.0,West,13.8,-,N/A,,Overcast,280,2013-02-12 00:50:00
7:50 PM,21.2,15.8,80,29.97,10.0,West,13.8,-,N/A,,Overcast,280,2013-02-12 01:50:00
8:45 PM,21.2,15.8,80,29.98,10.0,West,11.5,-,N/A,,Overcast,280,2013-02-12 02:45:00
9:14 PM,21.2,15.8,80,29.98,10.0,WNW,10.4,-,N/A,,Overcast,290,2013-02-12 03:14:00
9:34 PM,21.2,15.8,80,29.99,10.0,WNW,8.1,-,N/A,,Overcast,290,2013-02-12 03:34:00
9:54 PM,21.2,15.8,80,30.00,10.0,WNW,10.4,-,N/A,,Overcast,300,2013-02-12 03:54:00
10:14 PM,21.2,15.8,80,30.01,10.0,WNW,10.4,18.4,N/A,,Overcast,290,2013-02-12 04:14:00
10:34 PM,21.2,15.8,80,30.01,10.0,WNW,11.5,-,N/A,,Overcast,290,2013-02-12 04:34:00
10:54 PM,21.2,15.8,80,30.01,10.0,West,10.4,-,N/A,,Overcast,280,2013-02-12 04:54:00
11:14 PM,21.2,15.8,80,30.01,10.0,West,10.4,-,N/A,,Overcast,270,2013-02-12 05:14:00
11:33 PM,19.4,15.8,86,30.01,10.0,West,9.2,-,N/A,,Mostly Cloudy,270,2013-02-12 05:33:00
11:54 PM,17.6,15.8,93,30.01,10.0,West,5.8,-,N/A,,Clear,260,2013-02-12 05:54:00